SAV15P LFPB-LGTS
Flight info
| Callsign | SAV15P |
|---|---|
| Flight time | N/A |
| Altitude | 39000 |
| Route | BUBLI DCT LUVAL DCT BEGAR DCT TRA/N0430F390 DCT GAMSA DCT GEDSO DCT VEKEN DCT DARZA DCT NAVSU DCT SOLGU DCT MEDUX UM867 KOGAT DCT TALAS UN130 ALIKO |
| Aircraft | C25C/M-SDE2E3FGHRWXY/LB1 |
Departure
| Time | 2026-04-28 10:43 |
|---|---|
| Airport | Paris-Le Bourget International Airport (LFPB) |
Arrival
| Time | N/A |
|---|---|
| Airport | Thessaloniki Macedonia International Airport (LGTS) |
| Time | Latitude | Longitude | Altitude | Speed | Heading |
|---|---|---|---|---|---|
| 2026-04-28 10:24 | 48.95149 | 2.43808 | 148 ft | 0 kts | 117° |
| 2026-04-28 10:26 | 48.95146 | 2.43812 | 148 ft | 2 kts | 144° |
| 2026-04-28 10:26 | 48.95139 | 2.43781 | 148 ft | 5 kts | 300° |
| 2026-04-28 10:27 | 48.95142 | 2.43774 | 147 ft | 0 kts | 301° |
| 2026-04-28 10:28 | 48.95148 | 2.43759 | 147 ft | 6 kts | 299° |
| 2026-04-28 10:28 | 48.95145 | 2.43668 | 146 ft | 12 kts | 265° |
| 2026-04-28 10:29 | 48.95149 | 2.43524 | 146 ft | 5 kts | 297° |
| 2026-04-28 10:29 | 48.95163 | 2.43474 | 146 ft | 5 kts | 293° |
| 2026-04-28 10:29 | 48.95180 | 2.43419 | 146 ft | 7 kts | 295° |
| 2026-04-28 10:29 | 48.95203 | 2.43331 | 147 ft | 10 kts | 275° |
| 2026-04-28 10:30 | 48.95148 | 2.43247 | 147 ft | 14 kts | 197° |
| 2026-04-28 10:30 | 48.95043 | 2.43177 | 146 ft | 19 kts | 207° |
| 2026-04-28 10:30 | 48.94914 | 2.43092 | 147 ft | 20 kts | 200° |
| 2026-04-28 10:30 | 48.94816 | 2.43008 | 145 ft | 14 kts | 232° |
| 2026-04-28 10:31 | 48.94829 | 2.42882 | 144 ft | 11 kts | 295° |
| 2026-04-28 10:31 | 48.94834 | 2.42864 | 144 ft | 0 kts | 294° |
| 2026-04-28 10:31 | 48.94858 | 2.42787 | 143 ft | 15 kts | 295° |
| 2026-04-28 10:32 | 48.94901 | 2.42626 | 146 ft | 15 kts | 291° |
| 2026-04-28 10:32 | 48.94945 | 2.42491 | 147 ft | 14 kts | 302° |
| 2026-04-28 10:32 | 48.95019 | 2.42447 | 148 ft | 11 kts | 352° |
| 2026-04-28 10:32 | 48.95086 | 2.42455 | 148 ft | 11 kts | 29° |
| 2026-04-28 10:33 | 48.95141 | 2.42519 | 149 ft | 8 kts | 9° |
| 2026-04-28 10:33 | 48.95200 | 2.42531 | 149 ft | 9 kts | 14° |
| 2026-04-28 10:33 | 48.95264 | 2.42584 | 149 ft | 12 kts | 27° |
| 2026-04-28 10:33 | 48.95347 | 2.42635 | 149 ft | 14 kts | 24° |
| 2026-04-28 10:34 | 48.95441 | 2.42704 | 149 ft | 16 kts | 25° |
| 2026-04-28 10:34 | 48.95544 | 2.42779 | 150 ft | 17 kts | 24° |
| 2026-04-28 10:34 | 48.95654 | 2.42851 | 150 ft | 18 kts | 22° |
| 2026-04-28 10:34 | 48.95770 | 2.42936 | 150 ft | 19 kts | 26° |
| 2026-04-28 10:35 | 48.95887 | 2.43019 | 151 ft | 18 kts | 25° |
| 2026-04-28 10:35 | 48.95983 | 2.43058 | 150 ft | 14 kts | 337° |
| 2026-04-28 10:35 | 48.96057 | 2.42937 | 146 ft | 15 kts | 309° |
| 2026-04-28 10:35 | 48.96120 | 2.42820 | 147 ft | 13 kts | 307° |
| 2026-04-28 10:36 | 48.96166 | 2.42728 | 150 ft | 9 kts | 314° |
| 2026-04-28 10:36 | 48.96197 | 2.42677 | 152 ft | 4 kts | 309° |
| 2026-04-28 10:36 | 48.96221 | 2.42632 | 156 ft | 9 kts | 308° |
| 2026-04-28 10:36 | 48.96266 | 2.42514 | 155 ft | 18 kts | 282° |
| 2026-04-28 10:37 | 48.96266 | 2.42312 | 153 ft | 10 kts | 269° |
| 2026-04-28 10:37 | 48.96264 | 2.42252 | 153 ft | 0 kts | 265° |
| 2026-04-28 10:41 | 48.96262 | 2.42209 | 154 ft | 10 kts | 266° |
| 2026-04-28 10:41 | 48.96273 | 2.42101 | 153 ft | 12 kts | 303° |
| 2026-04-28 10:42 | 48.96358 | 2.42060 | 149 ft | 15 kts | 30° |
| 2026-04-28 10:42 | 48.96421 | 2.42165 | 150 ft | 11 kts | 64° |
| 2026-04-28 10:42 | 48.96450 | 2.42267 | 153 ft | 9 kts | 68° |
| 2026-04-28 10:42 | 48.96473 | 2.42352 | 155 ft | 8 kts | 66° |
| 2026-04-28 10:43 | 48.96495 | 2.42432 | 157 ft | 9 kts | 68° |
| 2026-04-28 10:43 | 48.96636 | 2.42942 | 171 ft | 103 kts | 64° |
| 2026-04-28 10:43 | 48.96991 | 2.44259 | 411 ft | 156 kts | 64° |
| 2026-04-28 10:43 | 48.97457 | 2.45598 | 1454 ft | 131 kts | 49° |
| 2026-04-28 10:44 | 48.98195 | 2.46540 | 2046 ft | 162 kts | 38° |
| 2026-04-28 10:44 | 48.99226 | 2.47719 | 2130 ft | 208 kts | 50° |
| 2026-04-28 10:44 | 48.99628 | 2.50124 | 2000 ft | 273 kts | 93° |
| 2026-04-28 10:44 | 48.98948 | 2.52860 | 1981 ft | 275 kts | 118° |
| 2026-04-28 10:45 | 48.97953 | 2.55270 | 1960 ft | 264 kts | 118° |
| 2026-04-28 10:45 | 48.97075 | 2.57657 | 1954 ft | 253 kts | 114° |
| 2026-04-28 10:45 | 48.96396 | 2.60074 | 1968 ft | 244 kts | 104° |
| 2026-04-28 10:45 | 48.96065 | 2.62562 | 1981 ft | 237 kts | 92° |
| 2026-04-28 10:46 | 48.95961 | 2.65030 | 2002 ft | 232 kts | 92° |
| 2026-04-28 10:46 | 48.95830 | 2.67529 | 1994 ft | 243 kts | 93° |
| 2026-04-28 10:46 | 48.95674 | 2.70139 | 2002 ft | 252 kts | 94° |
| 2026-04-28 10:46 | 48.95546 | 2.71912 | 2011 ft | 257 kts | 95° |
| 2026-04-28 10:47 | 48.95369 | 2.74650 | 2041 ft | 262 kts | 94° |
| 2026-04-28 10:47 | 48.95180 | 2.77426 | 2110 ft | 263 kts | 94° |
| 2026-04-28 10:47 | 48.94947 | 2.80140 | 2119 ft | 255 kts | 97° |
| 2026-04-28 10:47 | 48.94764 | 2.82787 | 2128 ft | 249 kts | 92° |
| 2026-04-28 10:48 | 48.94613 | 2.85383 | 2124 ft | 245 kts | 95° |
| 2026-04-28 10:48 | 48.94412 | 2.87961 | 2112 ft | 250 kts | 94° |
| 2026-04-28 10:48 | 48.94215 | 2.90714 | 2137 ft | 272 kts | 96° |
| 2026-04-28 10:48 | 48.93976 | 2.93555 | 2655 ft | 271 kts | 95° |
| 2026-04-28 10:49 | 48.93775 | 2.96442 | 3030 ft | 275 kts | 96° |
| 2026-04-28 10:49 | 48.93552 | 2.99338 | 3491 ft | 276 kts | 96° |
| 2026-04-28 10:49 | 48.93349 | 3.02215 | 3961 ft | 278 kts | 96° |
| 2026-04-28 10:49 | 48.93111 | 3.05207 | 3983 ft | 293 kts | 96° |
| 2026-04-28 10:50 | 48.92882 | 3.08347 | 3990 ft | 304 kts | 96° |
| 2026-04-28 10:50 | 48.92583 | 3.11572 | 3992 ft | 312 kts | 103° |
| 2026-04-28 10:50 | 48.91773 | 3.14673 | 4040 ft | 317 kts | 112° |
| 2026-04-28 10:50 | 48.90961 | 3.17780 | 4282 ft | 315 kts | 110° |
| 2026-04-28 10:51 | 48.90181 | 3.20752 | 5215 ft | 289 kts | 111° |
| 2026-04-28 10:51 | 48.89470 | 3.23457 | 6364 ft | 261 kts | 110° |
| 2026-04-28 10:51 | 48.88811 | 3.25966 | 7066 ft | 256 kts | 111° |
| 2026-04-28 10:51 | 48.88140 | 3.28517 | 7438 ft | 261 kts | 110° |
| 2026-04-28 10:52 | 48.87463 | 3.31080 | 7927 ft | 262 kts | 112° |
| 2026-04-28 10:52 | 48.86780 | 3.33661 | 8354 ft | 264 kts | 111° |
| 2026-04-28 10:52 | 48.86094 | 3.36258 | 8804 ft | 265 kts | 112° |
| 2026-04-28 10:52 | 48.85397 | 3.38886 | 9176 ft | 269 kts | 112° |
| 2026-04-28 10:53 | 48.84695 | 3.41542 | 9548 ft | 274 kts | 112° |
| 2026-04-28 10:53 | 48.83978 | 3.44237 | 9990 ft | 275 kts | 113° |
| 2026-04-28 10:53 | 48.83263 | 3.46940 | 10342 ft | 278 kts | 114° |
| 2026-04-28 10:53 | 48.82527 | 3.49682 | 10552 ft | 287 kts | 114° |
| 2026-04-28 10:54 | 48.81773 | 3.52533 | 10558 ft | 307 kts | 114° |
| 2026-04-28 10:54 | 48.81090 | 3.55719 | 11011 ft | 324 kts | 98° |
| 2026-04-28 10:54 | 48.80951 | 3.59148 | 11842 ft | 328 kts | 98° |
| 2026-04-28 10:54 | 48.80652 | 3.62601 | 12591 ft | 334 kts | 99° |
| 2026-04-28 10:55 | 48.80419 | 3.66137 | 13382 ft | 339 kts | 97° |
| 2026-04-28 10:55 | 48.80207 | 3.69728 | 14116 ft | 344 kts | 98° |
| 2026-04-28 10:55 | 48.79976 | 3.73363 | 14785 ft | 349 kts | 98° |
| 2026-04-28 10:55 | 48.79723 | 3.77045 | 15444 ft | 353 kts | 98° |
| 2026-04-28 10:56 | 48.79479 | 3.80771 | 16094 ft | 357 kts | 98° |
| 2026-04-28 10:56 | 48.79226 | 3.84539 | 16753 ft | 362 kts | 98° |
| 2026-04-28 10:56 | 48.78978 | 3.88356 | 17424 ft | 366 kts | 98° |
| 2026-04-28 10:56 | 48.78714 | 3.92217 | 18096 ft | 370 kts | 98° |
| 2026-04-28 10:57 | 48.78454 | 3.96128 | 18722 ft | 375 kts | 98° |
| 2026-04-28 10:57 | 48.78182 | 4.00087 | 19323 ft | 379 kts | 98° |
| 2026-04-28 10:57 | 48.77914 | 4.04087 | 19938 ft | 384 kts | 98° |
| 2026-04-28 10:57 | 48.77632 | 4.08145 | 20564 ft | 389 kts | 99° |
| 2026-04-28 10:58 | 48.77353 | 4.12258 | 21189 ft | 394 kts | 98° |
| 2026-04-28 10:58 | 48.77062 | 4.16411 | 21814 ft | 399 kts | 99° |
| 2026-04-28 10:58 | 48.76770 | 4.20615 | 22427 ft | 404 kts | 99° |
| 2026-04-28 10:58 | 48.76450 | 4.24872 | 23011 ft | 408 kts | 102° |
| 2026-04-28 10:59 | 48.75532 | 4.28899 | 23566 ft | 405 kts | 120° |
| 2026-04-28 10:59 | 48.74221 | 4.32698 | 24034 ft | 408 kts | 123° |
| 2026-04-28 10:59 | 48.72592 | 4.36182 | 24423 ft | 404 kts | 138° |
| 2026-04-28 10:59 | 48.70514 | 4.39049 | 24824 ft | 405 kts | 144° |
| 2026-04-28 11:00 | 48.68329 | 4.41759 | 25218 ft | 407 kts | 146° |
| 2026-04-28 11:00 | 48.66121 | 4.44459 | 25579 ft | 413 kts | 141° |
| 2026-04-28 11:00 | 48.64356 | 4.47877 | 25931 ft | 423 kts | 127° |
| 2026-04-28 11:00 | 48.62814 | 4.51681 | 26274 ft | 427 kts | 125° |
| 2026-04-28 11:01 | 48.61269 | 4.55523 | 26587 ft | 429 kts | 127° |
| 2026-04-28 11:01 | 48.59514 | 4.59156 | 26893 ft | 427 kts | 134° |
| 2026-04-28 11:01 | 48.57545 | 4.62598 | 27190 ft | 428 kts | 136° |
| 2026-04-28 11:01 | 48.55612 | 4.65961 | 27455 ft | 432 kts | 135° |
| 2026-04-28 11:02 | 48.53734 | 4.69622 | 27683 ft | 438 kts | 133° |
| 2026-04-28 11:02 | 48.51910 | 4.73225 | 27968 ft | 438 kts | 134° |
| 2026-04-28 11:02 | 48.49996 | 4.76800 | 28274 ft | 438 kts | 136° |
| 2026-04-28 11:02 | 48.48072 | 4.80360 | 28604 ft | 439 kts | 136° |
| 2026-04-28 11:03 | 48.46167 | 4.83954 | 28984 ft | 439 kts | 135° |
| 2026-04-28 11:03 | 48.44264 | 4.87564 | 29362 ft | 439 kts | 136° |
| 2026-04-28 11:03 | 48.42358 | 4.91139 | 29734 ft | 438 kts | 136° |
| 2026-04-28 11:03 | 48.40447 | 4.94721 | 30094 ft | 438 kts | 136° |
| 2026-04-28 11:04 | 48.38532 | 4.98291 | 30385 ft | 438 kts | 136° |
| 2026-04-28 11:04 | 48.36628 | 5.01869 | 30632 ft | 438 kts | 136° |
| 2026-04-28 11:04 | 48.34721 | 5.05428 | 30925 ft | 437 kts | 136° |
| 2026-04-28 11:04 | 48.32815 | 5.08993 | 31209 ft | 438 kts | 135° |
| 2026-04-28 11:05 | 48.31091 | 5.12811 | 31405 ft | 447 kts | 127° |
| 2026-04-28 11:05 | 48.29650 | 5.16977 | 31612 ft | 454 kts | 120° |
| 2026-04-28 11:05 | 48.28554 | 5.21465 | 31796 ft | 461 kts | 112° |
| 2026-04-28 11:05 | 48.27812 | 5.26167 | 32083 ft | 465 kts | 106° |
| 2026-04-28 11:06 | 48.27106 | 5.30894 | 32471 ft | 463 kts | 108° |
| 2026-04-28 11:06 | 48.26385 | 5.35595 | 32912 ft | 463 kts | 107° |
| 2026-04-28 11:06 | 48.25685 | 5.40304 | 33363 ft | 462 kts | 107° |
| 2026-04-28 11:06 | 48.24995 | 5.45008 | 33788 ft | 461 kts | 106° |
| 2026-04-28 11:07 | 48.24289 | 5.49696 | 34179 ft | 460 kts | 107° |
| 2026-04-28 11:07 | 48.23582 | 5.54369 | 34560 ft | 459 kts | 106° |
| 2026-04-28 11:07 | 48.22876 | 5.59028 | 34914 ft | 457 kts | 106° |
| 2026-04-28 11:07 | 48.22176 | 5.63679 | 35258 ft | 456 kts | 106° |
| 2026-04-28 11:08 | 48.21473 | 5.68308 | 35651 ft | 454 kts | 106° |
| 2026-04-28 11:08 | 48.20770 | 5.72916 | 36036 ft | 452 kts | 106° |
| 2026-04-28 11:08 | 48.20071 | 5.77500 | 36432 ft | 450 kts | 105° |
| 2026-04-28 11:08 | 48.19371 | 5.82062 | 36826 ft | 448 kts | 105° |
| 2026-04-28 11:09 | 48.18676 | 5.86599 | 37207 ft | 446 kts | 105° |
| 2026-04-28 11:09 | 48.17977 | 5.91119 | 37590 ft | 444 kts | 105° |
| 2026-04-28 11:09 | 48.17285 | 5.95613 | 37974 ft | 442 kts | 105° |
| 2026-04-28 11:09 | 48.16590 | 6.00094 | 38349 ft | 441 kts | 105° |
| 2026-04-28 11:10 | 48.15894 | 6.04569 | 38655 ft | 441 kts | 105° |
| 2026-04-28 11:10 | 48.15200 | 6.09036 | 38914 ft | 441 kts | 105° |
| 2026-04-28 11:10 | 48.14496 | 6.13528 | 38997 ft | 446 kts | 105° |
| 2026-04-28 11:11 | 48.13064 | 6.22660 | 39046 ft | 457 kts | 105° |
| 2026-04-28 11:11 | 48.11595 | 6.31994 | 39054 ft | 457 kts | 105° |
| 2026-04-28 11:12 | 48.10150 | 6.41122 | 39051 ft | 453 kts | 105° |
| 2026-04-28 11:12 | 48.08683 | 6.50287 | 39046 ft | 453 kts | 105° |
| 2026-04-28 11:13 | 48.07218 | 6.59439 | 39038 ft | 453 kts | 105° |
| 2026-04-28 11:13 | 48.05742 | 6.68586 | 39039 ft | 452 kts | 105° |
| 2026-04-28 11:14 | 48.04262 | 6.77717 | 39041 ft | 452 kts | 105° |
| 2026-04-28 11:14 | 48.02774 | 6.86842 | 39042 ft | 452 kts | 105° |
| 2026-04-28 11:15 | 48.01281 | 6.95958 | 39038 ft | 452 kts | 105° |
| 2026-04-28 11:15 | 47.99780 | 7.05055 | 39045 ft | 451 kts | 105° |
| 2026-04-28 11:16 | 47.98275 | 7.14148 | 39048 ft | 451 kts | 105° |
| 2026-04-28 11:16 | 47.96757 | 7.23247 | 39037 ft | 452 kts | 105° |
| 2026-04-28 11:17 | 47.95235 | 7.32332 | 39044 ft | 451 kts | 105° |
| 2026-04-28 11:17 | 47.93707 | 7.41408 | 39044 ft | 451 kts | 105° |
| 2026-04-28 11:18 | 47.92176 | 7.50458 | 39049 ft | 450 kts | 105° |
| 2026-04-28 11:18 | 47.90559 | 7.59471 | 39046 ft | 449 kts | 112° |
| 2026-04-28 11:19 | 47.88353 | 7.68154 | 39048 ft | 448 kts | 112° |
| 2026-04-28 11:19 | 47.86163 | 7.76850 | 39046 ft | 448 kts | 113° |
| 2026-04-28 11:20 | 47.83947 | 7.85536 | 39046 ft | 449 kts | 112° |
| 2026-04-28 11:20 | 47.81735 | 7.94238 | 39045 ft | 449 kts | 113° |
| 2026-04-28 11:21 | 47.79506 | 8.02924 | 39051 ft | 449 kts | 113° |
| 2026-04-28 11:21 | 47.77277 | 8.11610 | 39053 ft | 449 kts | 113° |
| 2026-04-28 11:22 | 47.75053 | 8.20214 | 39055 ft | 449 kts | 113° |
| 2026-04-28 11:22 | 47.72793 | 8.28947 | 39054 ft | 449 kts | 113° |
| 2026-04-28 11:23 | 47.70560 | 8.37536 | 39045 ft | 449 kts | 113° |
| 2026-04-28 11:23 | 47.68376 | 8.46219 | 39061 ft | 449 kts | 110° |
| 2026-04-28 11:24 | 47.66408 | 8.55019 | 39060 ft | 449 kts | 110° |
| 2026-04-28 11:24 | 47.64409 | 8.63801 | 39062 ft | 450 kts | 110° |
| 2026-04-28 11:25 | 47.62415 | 8.72585 | 39061 ft | 450 kts | 110° |
| 2026-04-28 11:25 | 47.60406 | 8.81372 | 39059 ft | 450 kts | 110° |
| 2026-04-28 11:26 | 47.58396 | 8.90145 | 39058 ft | 451 kts | 110° |
| 2026-04-28 11:26 | 47.56348 | 8.99018 | 39062 ft | 459 kts | 110° |
| 2026-04-28 11:27 | 47.54270 | 9.08021 | 39067 ft | 465 kts | 111° |
| 2026-04-28 11:27 | 47.52159 | 9.17094 | 39070 ft | 470 kts | 111° |
| 2026-04-28 11:28 | 47.50017 | 9.26289 | 39062 ft | 474 kts | 110° |
| 2026-04-28 11:28 | 47.47853 | 9.35533 | 39063 ft | 478 kts | 110° |
| 2026-04-28 11:29 | 47.45664 | 9.44844 | 39081 ft | 481 kts | 111° |
| 2026-04-28 11:29 | 47.43456 | 9.54192 | 39088 ft | 483 kts | 111° |
| 2026-04-28 11:30 | 47.41238 | 9.63560 | 39082 ft | 484 kts | 110° |
| 2026-04-28 11:30 | 47.39052 | 9.78165 | 39079 ft | 487 kts | 102° |
| 2026-04-28 11:31 | 47.37696 | 9.87981 | 39077 ft | 489 kts | 102° |
| 2026-04-28 11:31 | 47.36317 | 9.97808 | 39078 ft | 490 kts | 102° |
| 2026-04-28 11:32 | 47.34943 | 10.07608 | 39076 ft | 485 kts | 102° |
| 2026-04-28 11:32 | 47.33566 | 10.17302 | 39076 ft | 481 kts | 102° |
| 2026-04-28 11:33 | 47.32190 | 10.26913 | 39078 ft | 479 kts | 102° |
| 2026-04-28 11:33 | 47.30831 | 10.36472 | 39075 ft | 481 kts | 102° |
| 2026-04-28 11:34 | 47.29427 | 10.46117 | 39081 ft | 483 kts | 102° |
| 2026-04-28 11:34 | 47.28016 | 10.55831 | 39081 ft | 486 kts | 102° |
| 2026-04-28 11:35 | 47.26822 | 10.63987 | 39080 ft | 487 kts | 102° |
| 2026-04-28 11:35 | 47.25381 | 10.73754 | 39080 ft | 489 kts | 102° |
| 2026-04-28 11:36 | 47.23946 | 10.83478 | 39071 ft | 492 kts | 102° |
| 2026-04-28 11:36 | 47.22485 | 10.93250 | 39072 ft | 486 kts | 102° |
| 2026-04-28 11:37 | 47.21039 | 11.02933 | 39072 ft | 483 kts | 102° |
| 2026-04-28 11:37 | 47.19589 | 11.12539 | 39075 ft | 481 kts | 103° |
| 2026-04-28 11:38 | 47.18137 | 11.22113 | 39083 ft | 479 kts | 103° |
| 2026-04-28 11:38 | 47.16679 | 11.31657 | 39038 ft | 478 kts | 102° |
| 2026-04-28 11:39 | 47.15226 | 11.41131 | 39049 ft | 474 kts | 103° |
| 2026-04-28 11:39 | 47.13767 | 11.50568 | 39049 ft | 473 kts | 103° |
| 2026-04-28 11:40 | 47.12308 | 11.59977 | 39060 ft | 473 kts | 103° |
| 2026-04-28 11:40 | 47.10827 | 11.69448 | 39076 ft | 478 kts | 103° |
| 2026-04-28 11:41 | 47.09328 | 11.78982 | 39081 ft | 479 kts | 103° |
| 2026-04-28 11:41 | 47.07497 | 11.88390 | 39084 ft | 482 kts | 112° |
| 2026-04-28 11:42 | 47.04628 | 11.97283 | 39095 ft | 484 kts | 117° |
| 2026-04-28 11:42 | 47.01676 | 12.06154 | 39098 ft | 483 kts | 117° |
| 2026-04-28 11:43 | 46.98723 | 12.14925 | 39091 ft | 478 kts | 117° |
| 2026-04-28 11:43 | 46.95794 | 12.23615 | 39120 ft | 474 kts | 117° |
| 2026-04-28 11:44 | 46.92904 | 12.32175 | 39121 ft | 471 kts | 117° |
| 2026-04-28 11:44 | 46.90001 | 12.40734 | 39115 ft | 468 kts | 117° |
| 2026-04-28 11:45 | 46.87109 | 12.49236 | 39119 ft | 465 kts | 117° |
| 2026-04-28 11:45 | 46.84225 | 12.57682 | 39107 ft | 464 kts | 117° |
| 2026-04-28 11:46 | 46.81349 | 12.66085 | 39104 ft | 462 kts | 117° |
| 2026-04-28 11:46 | 46.78473 | 12.74451 | 39088 ft | 461 kts | 118° |
| 2026-04-28 11:47 | 46.75597 | 12.82804 | 39082 ft | 461 kts | 118° |
| 2026-04-28 11:47 | 46.72719 | 12.91125 | 39085 ft | 460 kts | 118° |
| 2026-04-28 11:48 | 46.69840 | 12.99430 | 39099 ft | 458 kts | 118° |
| 2026-04-28 11:48 | 46.66957 | 13.07708 | 39095 ft | 458 kts | 117° |
| 2026-04-28 11:49 | 46.64071 | 13.15980 | 39093 ft | 458 kts | 118° |
| 2026-04-28 11:49 | 46.61180 | 13.24236 | 39082 ft | 458 kts | 118° |
| 2026-04-28 11:50 | 46.58288 | 13.32474 | 39079 ft | 457 kts | 118° |
| 2026-04-28 11:50 | 46.54856 | 13.40205 | 39083 ft | 454 kts | 131° |
| 2026-04-28 11:51 | 46.50606 | 13.46967 | 39082 ft | 453 kts | 135° |
| 2026-04-28 11:51 | 46.46317 | 13.53672 | 39097 ft | 454 kts | 135° |
| 2026-04-28 11:52 | 46.42003 | 13.60405 | 39082 ft | 456 kts | 136° |
| 2026-04-28 11:52 | 46.37679 | 13.67117 | 39090 ft | 455 kts | 135° |
| 2026-04-28 11:53 | 46.33381 | 13.73787 | 39101 ft | 452 kts | 135° |
| 2026-04-28 11:53 | 46.29091 | 13.80424 | 39093 ft | 452 kts | 135° |
| 2026-04-28 11:54 | 46.24771 | 13.87095 | 39101 ft | 458 kts | 135° |
| 2026-04-28 11:54 | 46.20379 | 13.93857 | 39107 ft | 465 kts | 135° |
| 2026-04-28 11:55 | 46.15923 | 14.00697 | 39111 ft | 470 kts | 135° |
| 2026-04-28 11:55 | 46.11425 | 14.07595 | 39119 ft | 474 kts | 135° |
| 2026-04-28 11:56 | 46.06888 | 14.14524 | 39106 ft | 476 kts | 135° |
| 2026-04-28 11:56 | 46.02364 | 14.21415 | 39112 ft | 477 kts | 135° |
| 2026-04-28 11:57 | 45.97795 | 14.28365 | 39114 ft | 478 kts | 135° |
| 2026-04-28 11:57 | 45.93219 | 14.35303 | 39113 ft | 479 kts | 135° |
| 2026-04-28 11:58 | 45.88626 | 14.42254 | 39111 ft | 480 kts | 135° |
| 2026-04-28 11:58 | 45.84024 | 14.49189 | 39113 ft | 480 kts | 136° |
| 2026-04-28 11:59 | 45.79420 | 14.56116 | 39107 ft | 480 kts | 136° |
| 2026-04-28 11:59 | 45.74816 | 14.63038 | 39113 ft | 480 kts | 136° |
| 2026-04-28 12:00 | 45.70197 | 14.69945 | 39115 ft | 481 kts | 136° |
| 2026-04-28 12:00 | 45.65570 | 14.76855 | 39113 ft | 480 kts | 136° |
| 2026-04-28 12:01 | 45.60939 | 14.83753 | 39113 ft | 481 kts | 136° |
| 2026-04-28 12:01 | 45.56306 | 14.90638 | 39100 ft | 481 kts | 136° |
| 2026-04-28 12:02 | 45.51663 | 14.97516 | 39107 ft | 481 kts | 136° |
| 2026-04-28 12:02 | 45.47447 | 15.04958 | 39099 ft | 484 kts | 126° |
| 2026-04-28 12:03 | 45.43629 | 15.12842 | 39102 ft | 484 kts | 126° |
| 2026-04-28 12:03 | 45.39834 | 15.20646 | 39103 ft | 483 kts | 126° |
| 2026-04-28 12:04 | 45.36089 | 15.28331 | 39102 ft | 484 kts | 126° |
| 2026-04-28 12:04 | 45.32250 | 15.36182 | 39090 ft | 484 kts | 126° |
| 2026-04-28 12:05 | 45.28403 | 15.44028 | 39096 ft | 484 kts | 126° |
| 2026-04-28 12:05 | 45.24575 | 15.51817 | 39094 ft | 484 kts | 126° |
| 2026-04-28 12:06 | 45.20693 | 15.59697 | 39104 ft | 484 kts | 126° |
| 2026-04-28 12:06 | 45.16857 | 15.67460 | 39103 ft | 484 kts | 126° |
| 2026-04-28 12:07 | 45.12987 | 15.75273 | 39107 ft | 485 kts | 126° |
| 2026-04-28 12:07 | 45.09106 | 15.83082 | 39109 ft | 485 kts | 126° |
| 2026-04-28 12:08 | 45.05221 | 15.90881 | 39115 ft | 485 kts | 126° |
| 2026-04-28 12:08 | 45.01331 | 15.98667 | 39095 ft | 485 kts | 126° |
| 2026-04-28 12:09 | 44.97433 | 16.06448 | 39094 ft | 485 kts | 126° |
| 2026-04-28 12:09 | 44.93579 | 16.14124 | 39094 ft | 485 kts | 127° |
| 2026-04-28 12:10 | 44.89953 | 16.21319 | 39102 ft | 485 kts | 126° |
| 2026-04-28 12:10 | 44.86041 | 16.29070 | 39103 ft | 485 kts | 127° |
| 2026-04-28 12:11 | 44.82133 | 16.36785 | 39097 ft | 485 kts | 127° |
| 2026-04-28 12:11 | 44.78204 | 16.44523 | 39097 ft | 485 kts | 127° |
| 2026-04-28 12:12 | 44.74276 | 16.52240 | 39094 ft | 485 kts | 127° |
| 2026-04-28 12:12 | 44.70340 | 16.59950 | 39092 ft | 485 kts | 127° |
| 2026-04-28 12:13 | 44.66402 | 16.67647 | 39086 ft | 485 kts | 127° |
| 2026-04-28 12:13 | 44.62458 | 16.75337 | 39088 ft | 485 kts | 127° |
| 2026-04-28 12:14 | 44.58511 | 16.83010 | 39080 ft | 485 kts | 127° |
| 2026-04-28 12:14 | 44.54551 | 16.90652 | 39088 ft | 484 kts | 128° |
| 2026-04-28 12:15 | 44.50369 | 16.98056 | 39085 ft | 485 kts | 129° |
| 2026-04-28 12:15 | 44.46205 | 17.05474 | 39074 ft | 484 kts | 129° |
| 2026-04-28 12:16 | 44.42024 | 17.12850 | 39085 ft | 484 kts | 129° |
| 2026-04-28 12:16 | 44.37846 | 17.20230 | 39082 ft | 484 kts | 129° |
| 2026-04-28 12:17 | 44.33659 | 17.27594 | 39081 ft | 484 kts | 130° |
| 2026-04-28 12:17 | 44.29464 | 17.34958 | 39080 ft | 484 kts | 130° |
| 2026-04-28 12:18 | 44.25267 | 17.42307 | 39075 ft | 484 kts | 129° |
| 2026-04-28 12:18 | 44.21065 | 17.49645 | 39061 ft | 484 kts | 129° |
| 2026-04-28 12:19 | 44.16888 | 17.56926 | 39058 ft | 484 kts | 130° |
| 2026-04-28 12:19 | 44.12675 | 17.64243 | 39057 ft | 484 kts | 130° |
| 2026-04-28 12:20 | 44.08512 | 17.71596 | 39062 ft | 484 kts | 128° |
| 2026-04-28 12:20 | 44.04415 | 17.79024 | 39057 ft | 484 kts | 129° |
| 2026-04-28 12:21 | 44.00268 | 17.86381 | 39054 ft | 483 kts | 129° |
| 2026-04-28 12:21 | 43.96145 | 17.93755 | 39053 ft | 483 kts | 129° |
| 2026-04-28 12:22 | 43.92703 | 17.99863 | 39050 ft | 483 kts | 129° |
| 2026-04-28 12:22 | 43.88566 | 18.07206 | 39047 ft | 483 kts | 129° |
| 2026-04-28 12:23 | 43.84424 | 18.14534 | 39044 ft | 483 kts | 129° |
| 2026-04-28 12:23 | 43.80280 | 18.21849 | 39045 ft | 483 kts | 129° |
| 2026-04-28 12:24 | 43.76129 | 18.29157 | 39044 ft | 483 kts | 129° |
| 2026-04-28 12:24 | 43.71970 | 18.36458 | 39046 ft | 483 kts | 129° |
| 2026-04-28 12:25 | 43.67807 | 18.43751 | 39039 ft | 483 kts | 129° |
| 2026-04-28 12:25 | 43.63648 | 18.51022 | 39043 ft | 482 kts | 129° |
| 2026-04-28 12:26 | 43.59480 | 18.58276 | 39052 ft | 482 kts | 129° |
| 2026-04-28 12:26 | 43.55328 | 18.65509 | 39051 ft | 481 kts | 129° |
| 2026-04-28 12:27 | 43.51168 | 18.72713 | 39059 ft | 481 kts | 129° |
| 2026-04-28 12:27 | 43.47002 | 18.79926 | 39053 ft | 481 kts | 129° |
| 2026-04-28 12:28 | 43.42824 | 18.87134 | 39055 ft | 482 kts | 129° |
| 2026-04-28 12:28 | 43.38647 | 18.94331 | 39048 ft | 482 kts | 129° |
| 2026-04-28 12:29 | 43.32362 | 19.05114 | 39049 ft | 482 kts | 130° |
| 2026-04-28 12:30 | 43.28165 | 19.12298 | 39054 ft | 482 kts | 130° |
| 2026-04-28 12:30 | 43.23963 | 19.19468 | 39054 ft | 482 kts | 130° |
| 2026-04-28 12:31 | 43.19759 | 19.26626 | 39062 ft | 482 kts | 130° |
| 2026-04-28 12:31 | 43.15554 | 19.33768 | 39064 ft | 481 kts | 130° |
| 2026-04-28 12:32 | 43.11347 | 19.40900 | 39052 ft | 482 kts | 130° |
| 2026-04-28 12:32 | 43.07131 | 19.48028 | 39056 ft | 482 kts | 130° |
| 2026-04-28 12:33 | 43.02909 | 19.55147 | 39060 ft | 482 kts | 130° |
| 2026-04-28 12:33 | 42.98685 | 19.62253 | 39060 ft | 481 kts | 130° |
| 2026-04-28 12:34 | 42.94459 | 19.69341 | 39056 ft | 482 kts | 130° |
| 2026-04-28 12:34 | 42.90230 | 19.76428 | 39056 ft | 482 kts | 130° |
| 2026-04-28 12:35 | 42.85988 | 19.83506 | 39062 ft | 482 kts | 130° |
| 2026-04-28 12:35 | 42.81749 | 19.90571 | 39066 ft | 482 kts | 130° |
| 2026-04-28 12:36 | 42.77531 | 19.97580 | 39066 ft | 482 kts | 130° |
| 2026-04-28 12:36 | 42.73277 | 20.04633 | 39075 ft | 482 kts | 130° |